createdAt,value
2023-11-07T00:00:27.278Z,100.00
2023-11-07T00:02:58.016Z,100.00
2023-11-07T00:05:26.381Z,100.00
2023-11-07T00:07:54.763Z,100.00
2023-11-07T00:10:25.439Z,100.00
2023-11-07T00:12:54.829Z,100.00
2023-11-07T00:15:27.556Z,100.00
2023-11-07T00:17:58.257Z,100.00
2023-11-07T00:20:26.587Z,100.00
2023-11-07T00:22:54.799Z,100.00
2023-11-07T00:25:23.402Z,100.00
2023-11-07T00:27:51.754Z,100.00
2023-11-07T00:30:21.716Z,100.00
2023-11-07T00:32:49.988Z,100.00
2023-11-07T00:35:18.342Z,100.00
2023-11-07T00:37:47.182Z,100.00
2023-11-07T00:40:16.093Z,100.00
2023-11-07T00:42:46.265Z,100.00
2023-11-07T00:45:15.219Z,100.00
2023-11-07T00:47:45.288Z,100.00
2023-11-07T00:50:13.823Z,100.00
2023-11-07T00:52:42.450Z,100.00
2023-11-07T00:55:11.372Z,100.00
2023-11-07T00:57:39.515Z,100.00
2023-11-07T01:00:09.290Z,100.00
2023-11-07T01:02:38.833Z,100.00
2023-11-07T01:05:14.747Z,100.00
2023-11-07T01:07:45.874Z,100.00
2023-11-07T01:10:14.711Z,100.00
2023-11-07T01:12:43.318Z,100.00
2023-11-07T01:15:13.875Z,100.00
2023-11-07T01:17:42.798Z,100.00
2023-11-07T01:20:15.813Z,100.00
2023-11-07T01:22:45.850Z,100.00
2023-11-07T01:25:14.411Z,100.00
2023-11-07T01:27:45.824Z,100.00
2023-11-07T01:30:16.145Z,100.00
2023-11-07T01:32:46.790Z,100.00
2023-11-07T01:35:21.862Z,100.00
2023-11-07T01:37:50.157Z,100.00
2023-11-07T01:40:19.337Z,100.00
2023-11-07T01:42:50.925Z,100.00
2023-11-07T01:45:19.804Z,100.00
2023-11-07T01:47:48.806Z,100.00
2023-11-07T01:50:19.343Z,100.00
2023-11-07T01:52:47.765Z,100.00
2023-11-07T01:55:19.015Z,100.00
2023-11-07T01:57:51.086Z,100.00
2023-11-07T02:00:20.935Z,100.00
2023-11-07T02:02:49.405Z,100.00
2023-11-07T02:05:21.993Z,100.00
2023-11-07T02:07:51.897Z,100.00
2023-11-07T02:10:20.799Z,100.00
2023-11-07T02:12:50.259Z,100.00
2023-11-07T02:15:30.804Z,100.00
2023-11-07T02:18:01.209Z,100.00
2023-11-07T02:20:32.057Z,100.00
2023-11-07T02:23:05.595Z,100.00
2023-11-07T02:25:36.327Z,100.00
2023-11-07T02:28:05.600Z,100.00
2023-11-07T02:30:34.097Z,100.00
2023-11-07T02:33:06.150Z,100.00
2023-11-07T02:35:34.880Z,100.00
2023-11-07T02:38:04.050Z,100.00
2023-11-07T02:40:32.645Z,100.00
2023-11-07T02:43:03.726Z,100.00
2023-11-07T02:45:31.946Z,100.00
2023-11-07T02:48:00.987Z,100.00
2023-11-07T02:50:29.761Z,100.00
2023-11-07T02:52:58.582Z,100.00
2023-11-07T02:55:27.637Z,100.00
2023-11-07T02:57:56.357Z,100.00
2023-11-07T03:00:28.053Z,100.00
2023-11-07T03:02:58.141Z,100.00
2023-11-07T03:05:26.674Z,100.00
2023-11-07T03:07:54.740Z,100.00
2023-11-07T03:10:23.308Z,100.00
2023-11-07T03:12:51.656Z,100.00
2023-11-07T03:15:20.025Z,100.00
2023-11-07T03:17:50.381Z,100.00
2023-11-07T03:20:19.353Z,100.00
2023-11-07T03:22:48.083Z,100.00
2023-11-07T03:25:18.177Z,100.00
2023-11-07T03:27:46.759Z,100.00
2023-11-07T03:30:15.280Z,100.00
2023-11-07T03:32:43.853Z,100.00
2023-11-07T03:35:14.140Z,100.00
2023-11-07T03:37:45.230Z,100.00
2023-11-07T03:40:14.223Z,100.00
2023-11-07T03:42:42.713Z,100.00
2023-11-07T03:45:12.849Z,100.00
2023-11-07T03:47:42.052Z,100.00
2023-11-07T03:50:12.040Z,100.00
2023-11-07T03:52:43.211Z,100.00
2023-11-07T03:55:11.657Z,100.00
2023-11-07T03:57:40.532Z,100.00
2023-11-07T04:00:12.049Z,100.00
2023-11-07T04:02:42.610Z,100.00
2023-11-07T04:05:11.801Z,100.00
2023-11-07T04:07:41.268Z,100.00
2023-11-07T04:10:11.993Z,100.00
2023-11-07T04:12:41.575Z,100.00
2023-11-07T04:15:11.236Z,100.00
2023-11-07T04:17:41.861Z,100.00
2023-11-07T04:20:12.329Z,100.00
2023-11-07T04:22:41.580Z,100.00
2023-11-07T04:25:12.662Z,100.00
2023-11-07T04:27:41.859Z,100.00
2023-11-07T04:30:11.783Z,100.00
2023-11-07T04:32:42.272Z,100.00
2023-11-07T04:35:13.245Z,100.00
2023-11-07T04:37:43.530Z,100.00
2023-11-07T04:40:14.381Z,100.00
2023-11-07T04:42:43.386Z,100.00
2023-11-07T04:45:12.633Z,100.00
2023-11-07T04:47:41.983Z,100.00
2023-11-07T04:50:13.335Z,100.00
2023-11-07T04:52:41.836Z,100.00
2023-11-07T04:55:10.611Z,100.00
2023-11-07T04:57:43.143Z,100.00
2023-11-07T05:00:13.881Z,100.00
2023-11-07T05:02:41.797Z,100.00
2023-11-07T05:05:12.753Z,100.00
2023-11-07T05:07:41.557Z,100.00
2023-11-07T05:10:13.639Z,100.00
2023-11-07T05:12:45.377Z,100.00
2023-11-07T05:15:14.346Z,100.00
2023-11-07T05:17:42.819Z,100.00
2023-11-07T05:20:15.260Z,100.00
2023-11-07T05:22:48.902Z,100.00
2023-11-07T05:25:19.492Z,100.00
2023-11-07T05:27:50.236Z,100.00
2023-11-07T05:30:19.458Z,100.00
2023-11-07T05:32:50.003Z,100.00
2023-11-07T05:35:18.988Z,100.00
2023-11-07T05:37:49.799Z,100.00
2023-11-07T05:40:20.524Z,100.00
2023-11-07T05:42:50.857Z,100.00
2023-11-07T05:45:19.883Z,100.00
2023-11-07T05:47:48.806Z,100.00
2023-11-07T05:50:17.660Z,100.00
2023-11-07T05:52:46.683Z,100.00
2023-11-07T05:55:15.745Z,100.00
2023-11-07T05:57:44.847Z,100.00
2023-11-07T06:00:17.103Z,100.00
2023-11-07T06:02:46.034Z,100.00
2023-11-07T06:05:14.747Z,100.00
2023-11-07T06:07:43.719Z,100.00
2023-11-07T06:10:14.644Z,100.00
2023-11-07T06:12:42.851Z,100.00
2023-11-07T06:15:16.011Z,100.00
2023-11-07T06:17:44.246Z,100.00
2023-11-07T06:20:14.412Z,100.00
2023-11-07T06:22:46.264Z,100.00
2023-11-07T06:25:16.622Z,100.00
2023-11-07T06:28:00.168Z,100.00
2023-11-07T06:30:31.513Z,100.00
2023-11-07T06:33:00.088Z,100.00
2023-11-07T06:35:28.968Z,100.00
2023-11-07T06:37:57.369Z,100.00
2023-11-07T06:40:28.501Z,100.00
2023-11-07T06:42:56.976Z,100.00
2023-11-07T06:45:25.608Z,100.00
2023-11-07T06:47:55.237Z,100.00
2023-11-07T06:50:27.528Z,100.00
2023-11-07T06:52:57.648Z,100.00
2023-11-07T06:55:26.745Z,100.00
2023-11-07T06:57:57.177Z,100.00
2023-11-07T07:00:27.400Z,100.00
2023-11-07T07:03:06.188Z,100.00
2023-11-07T07:05:34.945Z,100.00
2023-11-07T07:08:04.771Z,100.00
2023-11-07T07:10:36.457Z,100.00
2023-11-07T07:13:05.404Z,100.00
2023-11-07T07:15:38.017Z,100.00
2023-11-07T07:18:09.909Z,100.00
2023-11-07T07:20:38.887Z,100.00
2023-11-07T07:23:08.597Z,100.00
2023-11-07T07:25:37.568Z,100.00
2023-11-07T07:28:07.353Z,100.00
2023-11-07T07:30:38.919Z,100.00
2023-11-07T07:33:11.267Z,100.00
2023-11-07T07:35:40.871Z,100.00
2023-11-07T07:38:10.941Z,100.00
2023-11-07T07:40:39.861Z,100.00
2023-11-07T07:43:16.630Z,100.00
2023-11-07T07:45:45.704Z,100.00
2023-11-07T07:48:16.384Z,100.00
2023-11-07T07:50:48.029Z,100.00
2023-11-07T07:53:17.407Z,100.00
2023-11-07T07:55:46.474Z,100.00
2023-11-07T07:58:20.663Z,100.00
2023-11-07T08:00:54.010Z,100.00
2023-11-07T08:03:26.112Z,100.00
2023-11-07T08:05:54.717Z,100.00
2023-11-07T08:08:23.290Z,100.00
2023-11-07T08:10:53.929Z,100.00
2023-11-07T08:13:22.510Z,100.00
2023-11-07T08:15:51.279Z,100.00
2023-11-07T08:18:19.968Z,100.00
2023-11-07T08:20:51.835Z,100.00
2023-11-07T08:23:20.100Z,100.00
2023-11-07T08:25:48.974Z,100.00
2023-11-07T08:28:19.402Z,100.00
2023-11-07T08:30:48.835Z,100.00
2023-11-07T08:33:18.804Z,100.00
2023-11-07T08:35:49.215Z,100.00
2023-11-07T08:38:17.763Z,100.00
2023-11-07T08:40:53.019Z,100.00
2023-11-07T08:43:21.447Z,100.00
2023-11-07T08:45:56.186Z,100.00
2023-11-07T08:48:27.801Z,100.00
2023-11-07T08:50:59.519Z,100.00
2023-11-07T08:53:30.682Z,100.00
2023-11-07T08:55:59.008Z,100.00
2023-11-07T08:58:30.126Z,100.00
2023-11-07T09:00:59.768Z,100.00
2023-11-07T09:03:28.368Z,100.00
2023-11-07T09:06:00.086Z,100.00
2023-11-07T09:08:29.930Z,100.00
2023-11-07T09:10:58.644Z,100.00
2023-11-07T09:13:28.738Z,100.00
2023-11-07T09:16:01.623Z,100.00
2023-11-07T09:18:33.384Z,100.00
2023-11-07T09:21:03.717Z,100.00
2023-11-07T09:23:32.481Z,100.00
2023-11-07T09:26:04.352Z,100.00
2023-11-07T09:28:33.238Z,100.00
2023-11-07T09:31:01.668Z,100.00
2023-11-07T09:33:33.001Z,100.00
2023-11-07T09:36:02.148Z,100.00
2023-11-07T09:38:47.107Z,100.00
2023-11-07T09:41:21.177Z,100.00
2023-11-07T09:43:53.257Z,100.00
2023-11-07T09:46:25.915Z,100.00
2023-11-07T09:48:56.638Z,100.00
2023-11-07T09:51:28.899Z,100.00
2023-11-07T09:54:02.958Z,100.00
2023-11-07T09:56:32.910Z,100.00
2023-11-07T09:59:15.690Z,100.00
2023-11-07T10:01:46.089Z,100.00
2023-11-07T10:04:16.448Z,100.00
2023-11-07T10:06:45.709Z,100.00
2023-11-07T10:09:18.789Z,100.00
2023-11-07T10:11:51.221Z,100.00
2023-11-07T10:14:21.738Z,100.00
2023-11-07T10:17:00.317Z,100.00
2023-11-07T10:19:29.142Z,100.00
2023-11-07T10:21:58.745Z,100.00
2023-11-07T10:24:45.144Z,100.00
2023-11-07T10:27:16.621Z,100.00
2023-11-07T10:29:59.489Z,100.00
2023-11-07T10:32:47.597Z,100.00
2023-11-07T10:35:17.063Z,100.00
2023-11-07T10:37:47.143Z,100.00
2023-11-07T10:40:21.293Z,100.00
2023-11-07T10:42:50.989Z,100.00
2023-11-07T10:45:22.890Z,99.84
2023-11-07T10:47:51.332Z,94.81
2023-11-07T10:50:20.426Z,100.00
2023-11-07T10:52:50.541Z,100.00
2023-11-07T10:55:26.641Z,100.00
2023-11-07T10:58:01.369Z,100.00
2023-11-07T11:00:36.635Z,100.00
2023-11-07T11:03:13.694Z,100.00
2023-11-07T11:05:45.447Z,100.00
2023-11-07T11:08:24.696Z,99.26
2023-11-07T11:10:59.947Z,98.09
2023-11-07T11:13:29.764Z,100.00
2023-11-07T11:16:00.133Z,100.00
2023-11-07T11:18:35.587Z,99.70
2023-11-07T11:21:10.905Z,95.11
2023-11-07T11:23:46.707Z,94.60
2023-11-07T11:26:29.208Z,94.16
2023-11-07T11:28:58.633Z,96.29
2023-11-07T11:31:37.621Z,97.98
2023-11-07T11:34:36.943Z,95.58
2023-11-07T11:37:06.832Z,97.89
2023-11-07T11:39:48.610Z,96.41
2023-11-07T11:42:19.167Z,98.23
2023-11-07T11:45:40.881Z,97.32
2023-11-07T11:48:17.535Z,99.64
2023-11-07T11:50:50.267Z,99.70
2023-11-07T11:53:38.050Z,98.67
2023-11-07T11:56:13.920Z,99.31
2023-11-07T12:02:01.437Z,94.71
2023-11-07T12:04:37.448Z,96.34
2023-11-07T12:07:25.030Z,91.96
2023-11-07T12:10:00.555Z,94.29
2023-11-07T12:12:29.826Z,94.10
2023-11-07T12:15:00.063Z,93.77
2023-11-07T12:17:46.720Z,92.07
2023-11-07T12:20:19.869Z,91.46
2023-11-07T12:22:50.203Z,92.22
2023-11-07T12:25:22.469Z,91.51
2023-11-07T12:28:07.713Z,89.87
2023-11-07T12:30:37.461Z,92.19
2023-11-07T12:33:13.134Z,91.14
2023-11-07T12:35:43.938Z,92.55
2023-11-07T12:38:15.006Z,93.19
2023-11-07T12:40:44.916Z,93.33
2023-11-07T12:43:13.662Z,93.28
2023-11-07T12:45:49.745Z,94.09
2023-11-07T12:48:29.734Z,93.58
2023-11-07T12:50:58.573Z,94.72
2023-11-07T12:53:32.218Z,94.59
2023-11-07T12:56:01.700Z,94.86
2023-11-07T12:58:31.867Z,94.31
2023-11-07T13:01:02.197Z,93.14
2023-11-07T13:03:34.292Z,93.47
2023-11-07T13:06:05.877Z,92.86
2023-11-07T13:08:37.323Z,93.60
2023-11-07T13:11:15.978Z,92.64
2023-11-07T13:13:45.880Z,93.22
2023-11-07T13:16:16.361Z,94.12
2023-11-07T13:18:53.248Z,93.40
2023-11-07T13:21:22.431Z,94.29
2023-11-07T13:23:51.404Z,93.82
2023-11-07T13:26:20.359Z,94.21
2023-11-07T13:28:51.420Z,94.54
2023-11-07T13:31:20.711Z,93.85
2023-11-07T13:33:52.320Z,94.65
2023-11-07T13:36:21.743Z,94.81
2023-11-07T13:38:52.930Z,94.60
2023-11-07T13:41:22.146Z,94.55
2023-11-07T13:43:52.470Z,94.95
2023-11-07T13:46:21.620Z,95.50
2023-11-07T13:48:54.346Z,95.94
2023-11-07T13:51:23.617Z,95.73
2023-11-07T13:53:52.350Z,95.39
2023-11-07T13:56:27.093Z,95.62
2023-11-07T13:59:00.804Z,95.92
2023-11-07T14:01:32.634Z,96.98
2023-11-07T14:04:07.127Z,96.08
2023-11-07T14:06:37.672Z,96.33
2023-11-07T14:09:11.875Z,96.21
2023-11-07T14:11:44.811Z,96.55
2023-11-07T14:14:13.656Z,96.77
2023-11-07T14:16:42.615Z,96.95
2023-11-07T14:19:14.440Z,97.21
2023-11-07T14:21:43.475Z,96.89
2023-11-07T14:24:12.666Z,97.48
2023-11-07T14:26:42.161Z,97.66
2023-11-07T14:29:33.027Z,97.17
2023-11-07T14:32:00.643Z,97.34
2023-11-07T14:34:30.661Z,97.64
2023-11-07T14:37:07.798Z,98.03
2023-11-07T14:39:36.347Z,98.04
2023-11-07T14:42:08.887Z,97.87
2023-11-07T14:44:38.210Z,97.89
2023-11-07T14:47:08.771Z,97.67
2023-11-07T14:49:40.751Z,97.99
2023-11-07T14:52:10.732Z,97.44
2023-11-07T14:54:39.431Z,97.72
2023-11-07T14:57:09.707Z,98.21
2023-11-07T14:59:38.641Z,98.23
2023-11-07T15:02:14.559Z,98.69
2023-11-07T15:04:52.942Z,98.98
2023-11-07T15:07:21.899Z,99.77
2023-11-07T15:09:50.084Z,100.00
2023-11-07T15:12:19.071Z,100.00
2023-11-07T15:14:48.334Z,100.00
2023-11-07T15:17:17.307Z,100.00
2023-11-07T15:19:49.988Z,100.00
2023-11-07T15:22:20.107Z,100.00
2023-11-07T15:24:48.796Z,100.00
2023-11-07T15:27:17.514Z,100.00
2023-11-07T15:29:45.906Z,100.00
2023-11-07T15:32:13.995Z,100.00
2023-11-07T15:34:42.847Z,100.00
2023-11-07T15:37:11.061Z,100.00
2023-11-07T15:39:43.645Z,100.00
2023-11-07T15:42:11.807Z,100.00
2023-11-07T15:44:45.521Z,100.00
2023-11-07T15:47:13.863Z,100.00
2023-11-07T15:49:41.954Z,100.00
2023-11-07T15:52:10.388Z,100.00
2023-11-07T15:54:41.826Z,100.00
2023-11-07T15:57:13.192Z,100.00
2023-11-07T15:59:42.404Z,100.00
2023-11-07T16:02:10.777Z,100.00
2023-11-07T16:04:49.750Z,100.00
2023-11-07T16:07:19.878Z,100.00
2023-11-07T16:09:48.963Z,100.00
2023-11-07T16:12:18.742Z,100.00
2023-11-07T16:14:47.281Z,100.00
2023-11-07T16:17:15.797Z,100.00
2023-11-07T16:19:43.900Z,100.00
2023-11-07T16:22:12.359Z,100.00
2023-11-07T16:24:40.559Z,100.00
2023-11-07T16:27:09.751Z,100.00
2023-11-07T16:29:43.068Z,100.00
2023-11-07T16:32:11.570Z,100.00
2023-11-07T16:34:43.414Z,100.00
2023-11-07T16:37:11.694Z,100.00
2023-11-07T16:39:40.722Z,100.00
2023-11-07T16:42:10.428Z,100.00
2023-11-07T16:44:43.624Z,100.00
2023-11-07T16:47:15.957Z,100.00
2023-11-07T16:49:45.166Z,100.00
2023-11-07T16:52:13.597Z,100.00
2023-11-07T16:54:42.649Z,100.00
2023-11-07T16:57:12.543Z,100.00
2023-11-07T16:59:43.235Z,100.00
2023-11-07T17:02:11.929Z,100.00
2023-11-07T17:04:41.877Z,100.00
2023-11-07T17:07:10.989Z,100.00
2023-11-07T17:09:41.930Z,100.00
2023-11-07T17:12:13.614Z,100.00
2023-11-07T17:14:43.142Z,100.00
2023-11-07T17:17:13.604Z,100.00
2023-11-07T17:19:44.835Z,100.00
2023-11-07T17:22:14.372Z,100.00
2023-11-07T17:24:42.561Z,100.00
2023-11-07T17:27:10.933Z,100.00
2023-11-07T17:29:39.377Z,100.00
2023-11-07T17:32:12.102Z,100.00
2023-11-07T17:34:40.589Z,100.00
2023-11-07T17:37:09.087Z,100.00
2023-11-07T17:39:39.188Z,100.00
2023-11-07T17:42:09.978Z,100.00
2023-11-07T17:44:39.301Z,100.00
2023-11-07T17:47:07.876Z,100.00
2023-11-07T17:49:37.770Z,100.00
2023-11-07T17:52:07.048Z,100.00
2023-11-07T17:54:37.103Z,100.00
2023-11-07T17:57:08.123Z,100.00
2023-11-07T17:59:36.562Z,100.00
2023-11-07T18:02:04.718Z,100.00
2023-11-07T18:04:33.213Z,100.00
2023-11-07T18:07:02.926Z,100.00
2023-11-07T18:09:31.500Z,100.00
2023-11-07T18:12:00.076Z,100.00
2023-11-07T18:14:29.113Z,100.00
2023-11-07T18:16:58.270Z,100.00
2023-11-07T18:19:26.977Z,100.00
2023-11-07T18:21:55.241Z,100.00
2023-11-07T18:24:24.830Z,100.00
2023-11-07T18:26:57.940Z,100.00
2023-11-07T18:29:26.414Z,100.00
2023-11-07T18:31:55.549Z,100.00
2023-11-07T18:34:24.172Z,100.00
2023-11-07T18:37:03.212Z,100.00
2023-11-07T18:39:34.710Z,100.00
2023-11-07T18:42:06.287Z,100.00
2023-11-07T18:44:37.033Z,100.00
2023-11-07T18:47:06.375Z,100.00
2023-11-07T18:49:35.315Z,100.00
2023-11-07T18:52:07.338Z,100.00
2023-11-07T18:54:37.057Z,100.00
2023-11-07T18:57:12.552Z,100.00
2023-11-07T18:59:41.342Z,100.00
2023-11-07T19:02:19.566Z,100.00
2023-11-07T19:04:48.600Z,100.00
2023-11-07T19:07:17.797Z,100.00
2023-11-07T19:09:51.156Z,100.00
2023-11-07T19:12:20.102Z,100.00
2023-11-07T19:14:48.634Z,100.00
2023-11-07T19:17:19.667Z,100.00
2023-11-07T19:19:53.664Z,100.00
2023-11-07T19:22:25.112Z,100.00
2023-11-07T19:24:57.520Z,100.00
2023-11-07T19:27:26.858Z,100.00
2023-11-07T19:29:58.221Z,100.00
2023-11-07T19:32:26.939Z,100.00
2023-11-07T19:34:57.432Z,100.00
2023-11-07T19:37:25.927Z,100.00
2023-11-07T19:39:58.484Z,100.00
2023-11-07T19:42:30.206Z,100.00
2023-11-07T19:44:58.857Z,100.00
2023-11-07T19:47:27.446Z,100.00
2023-11-07T19:49:59.477Z,100.00
2023-11-07T19:52:27.658Z,100.00
2023-11-07T19:54:57.811Z,100.00
2023-11-07T19:57:30.636Z,100.00
2023-11-07T19:59:59.212Z,100.00
2023-11-07T20:02:27.970Z,100.00
2023-11-07T20:04:59.453Z,100.00
2023-11-07T20:07:27.832Z,100.00
2023-11-07T20:09:58.007Z,100.00
2023-11-07T20:12:26.142Z,100.00
2023-11-07T20:14:54.621Z,100.00
2023-11-07T20:17:23.160Z,100.00
2023-11-07T20:19:53.769Z,100.00
2023-11-07T20:22:22.420Z,100.00
2023-11-07T20:24:51.382Z,100.00
2023-11-07T20:27:26.598Z,100.00
2023-11-07T20:29:55.980Z,100.00
2023-11-07T20:32:28.664Z,100.00
2023-11-07T20:34:59.351Z,100.00
2023-11-07T20:37:28.940Z,100.00
2023-11-07T20:39:58.119Z,100.00
2023-11-07T20:42:30.215Z,100.00
2023-11-07T20:45:08.123Z,100.00
2023-11-07T20:47:41.349Z,100.00
2023-11-07T20:50:10.905Z,100.00
2023-11-07T20:52:39.663Z,100.00
2023-11-07T20:55:08.874Z,100.00
2023-11-07T20:57:38.860Z,100.00
2023-11-07T21:00:09.785Z,100.00
2023-11-07T21:02:40.865Z,100.00
2023-11-07T21:05:10.885Z,100.00
2023-11-07T21:07:40.101Z,100.00
2023-11-07T21:10:10.645Z,100.00
2023-11-07T21:12:40.807Z,100.00
2023-11-07T21:15:11.806Z,100.00
2023-11-07T21:17:43.942Z,100.00
2023-11-07T21:20:12.722Z,100.00
2023-11-07T21:22:44.301Z,100.00
2023-11-07T21:25:12.652Z,100.00
2023-11-07T21:27:43.127Z,100.00
2023-11-07T21:30:14.599Z,100.00
2023-11-07T21:32:44.560Z,100.00
2023-11-07T21:35:15.036Z,100.00
2023-11-07T21:37:43.789Z,100.00
2023-11-07T21:40:14.290Z,100.00
2023-11-07T21:42:45.312Z,100.00
2023-11-07T21:45:16.945Z,100.00
2023-11-07T21:47:48.557Z,100.00
2023-11-07T21:50:18.865Z,100.00
2023-11-07T21:52:47.505Z,100.00
2023-11-07T21:55:16.851Z,100.00
2023-11-07T21:57:47.373Z,100.00
2023-11-07T22:00:17.628Z,100.00
2023-11-07T22:02:48.863Z,100.00
2023-11-07T22:05:17.778Z,100.00
2023-11-07T22:07:46.711Z,100.00
2023-11-07T22:10:15.873Z,100.00
2023-11-07T22:12:46.957Z,100.00
2023-11-07T22:15:15.177Z,100.00
2023-11-07T22:17:43.640Z,100.00
2023-11-07T22:20:15.380Z,100.00
2023-11-07T22:22:44.089Z,100.00
2023-11-07T22:25:16.172Z,100.00
2023-11-07T22:27:45.048Z,100.00
2023-11-07T22:30:15.502Z,100.00
2023-11-07T22:32:45.410Z,100.00
2023-11-07T22:35:15.662Z,100.00
2023-11-07T22:37:47.121Z,100.00
2023-11-07T22:40:15.259Z,100.00
2023-11-07T22:42:48.956Z,100.00
2023-11-07T22:45:21.526Z,100.00
2023-11-07T22:47:50.212Z,100.00
2023-11-07T22:50:19.640Z,100.00
2023-11-07T22:52:50.986Z,100.00
2023-11-07T22:55:28.878Z,100.00
2023-11-07T22:58:00.344Z,100.00
2023-11-07T23:00:39.559Z,100.00
2023-11-07T23:03:14.647Z,100.00
2023-11-07T23:05:50.166Z,100.00
2023-11-07T23:08:27.366Z,100.00
2023-11-07T23:10:55.564Z,100.00
2023-11-07T23:13:30.643Z,100.00
2023-11-07T23:16:07.109Z,100.00
2023-11-07T23:18:38.548Z,100.00
2023-11-07T23:21:14.504Z,100.00
2023-11-07T23:23:42.800Z,100.00
2023-11-07T23:26:15.180Z,100.00
2023-11-07T23:28:47.241Z,100.00
2023-11-07T23:31:19.826Z,100.00
2023-11-07T23:33:53.054Z,100.00
2023-11-07T23:36:24.376Z,100.00
2023-11-07T23:38:56.649Z,100.00
2023-11-07T23:41:27.523Z,100.00
2023-11-07T23:43:58.021Z,100.00
2023-11-07T23:46:31.930Z,100.00
2023-11-07T23:49:03.630Z,100.00
2023-11-07T23:51:31.929Z,100.00
2023-11-07T23:54:00.884Z,100.00
2023-11-07T23:56:41.235Z,100.00
2023-11-07T23:59:12.467Z,100.00
